createdAt,value
2018-09-05T00:00:34.633Z,1011.6
2018-09-05T00:01:37.017Z,1011.6
2018-09-05T00:02:39.127Z,1011.6
2018-09-05T00:03:41.607Z,1011.5
2018-09-05T00:04:43.704Z,1011.5
2018-09-05T00:05:45.817Z,1011.5
2018-09-05T00:06:47.907Z,1011.5
2018-09-05T00:07:50.587Z,1011.5
2018-09-05T00:08:52.696Z,1011.5
2018-09-05T00:09:55.093Z,1011.5
2018-09-05T00:10:57.181Z,1011.5
2018-09-05T00:11:59.290Z,1011.5
2018-09-05T00:13:01.399Z,1011.5
2018-09-05T00:14:03.786Z,1011.6
2018-09-05T00:15:05.900Z,1011.6
2018-09-05T00:16:08.641Z,1011.5
2018-09-05T00:17:10.741Z,1011.5
2018-09-05T00:18:13.140Z,1011.5
2018-09-05T00:19:15.249Z,1011.5
2018-09-05T00:20:17.342Z,1011.5
2018-09-05T00:21:19.448Z,1011.5
2018-09-05T00:22:21.552Z,1011.5
2018-09-05T00:23:24.034Z,1011.5
2018-09-05T00:24:26.154Z,1011.5
2018-09-05T00:25:28.252Z,1011.5
2018-09-05T00:26:30.345Z,1011.4
2018-09-05T00:27:33.048Z,1011.5
2018-09-05T00:28:35.544Z,1011.4
2018-09-05T00:29:37.640Z,1011.5
2018-09-05T00:30:40.063Z,1011.5
2018-09-05T00:31:42.163Z,1011.5
2018-09-05T00:32:44.253Z,1011.5
2018-09-05T00:33:46.352Z,1011.5
2018-09-05T00:34:48.458Z,1011.6
2018-09-05T00:35:50.545Z,1011.5
2018-09-05T00:36:52.648Z,1011.6
2018-09-05T00:37:55.149Z,1011.6
2018-09-05T00:38:57.628Z,1011.5
2018-09-05T00:39:59.747Z,1011.6
2018-09-05T00:41:01.851Z,1011.6
2018-09-05T00:42:04.241Z,1011.5
2018-09-05T00:43:06.339Z,1011.5
2018-09-05T00:44:08.452Z,1011.5
2018-09-05T00:45:10.547Z,1011.5
2018-09-05T00:46:12.647Z,1011.5
2018-09-05T00:47:15.049Z,1011.5
2018-09-05T00:48:17.137Z,1011.5
2018-09-05T00:49:19.851Z,1011.5
2018-09-05T00:50:21.953Z,1011.4
2018-09-05T00:51:24.633Z,1011.5
2018-09-05T00:52:26.722Z,1011.5
2018-09-05T00:53:29.123Z,1011.5
2018-09-05T00:54:31.222Z,1011.5
2018-09-05T00:55:33.315Z,1011.5
2018-09-05T00:56:35.427Z,1011.5
2018-09-05T00:57:37.833Z,1011.5
2018-09-05T00:58:39.932Z,1011.5
2018-09-05T00:59:42.048Z,1011.5
2018-09-05T01:00:44.441Z,1011.5
2018-09-05T01:01:46.531Z,1011.5
2018-09-05T01:02:48.954Z,1011.5
2018-09-05T01:03:51.337Z,1011.5
2018-09-05T01:04:53.439Z,1011.5
2018-09-05T01:05:55.949Z,1011.5
2018-09-05T01:06:58.052Z,1011.5
2018-09-05T01:08:00.146Z,1011.5
2018-09-05T01:09:02.265Z,1011.5
2018-09-05T01:10:04.753Z,1011.5
2018-09-05T01:11:06.849Z,1011.5
2018-09-05T01:12:08.948Z,1011.5
2018-09-05T01:13:11.740Z,1011.5
2018-09-05T01:14:14.126Z,1011.5
2018-09-05T01:15:16.224Z,1011.6
2018-09-05T01:16:18.319Z,1011.5
2018-09-05T01:17:20.432Z,1011.5
2018-09-05T01:18:22.527Z,1011.5
2018-09-05T01:19:24.635Z,1011.5
2018-09-05T01:20:26.746Z,1011.5
2018-09-05T01:21:28.838Z,1011.5
2018-09-05T01:22:30.952Z,1011.5
2018-09-05T01:23:33.634Z,1011.5
2018-09-05T01:24:35.744Z,1011.4
2018-09-05T01:25:38.436Z,1011.4
2018-09-05T01:26:40.854Z,1011.4
2018-09-05T01:27:42.953Z,1011.4
2018-09-05T01:28:45.049Z,1011.4
2018-09-05T01:29:47.163Z,1011.4
2018-09-05T01:30:49.260Z,1011.4
2018-09-05T01:31:51.365Z,1011.4
2018-09-05T01:32:53.480Z,1011.4
2018-09-05T01:33:55.975Z,1011.4
2018-09-05T01:34:58.071Z,1011.4
2018-09-05T01:36:00.180Z,1011.4
2018-09-05T01:37:02.271Z,1011.4
2018-09-05T01:38:04.371Z,1011.4
2018-09-05T01:39:06.485Z,1011.4
2018-09-05T01:40:08.592Z,1011.4
2018-09-05T01:41:10.691Z,1011.5
2018-09-05T01:42:12.804Z,1011.4
2018-09-05T01:43:14.901Z,1011.5
2018-09-05T01:44:17.004Z,1011.5
2018-09-05T01:45:19.504Z,1011.4
2018-09-05T01:46:21.597Z,1011.4
2018-09-05T01:47:23.707Z,1011.5
2018-09-05T01:48:25.815Z,1011.5
2018-09-05T01:49:28.223Z,1011.4
2018-09-05T01:50:30.332Z,1011.4
2018-09-05T01:51:32.426Z,1011.4
2018-09-05T01:52:34.925Z,1011.4
2018-09-05T01:53:37.033Z,1011.5
2018-09-05T01:54:39.408Z,1011.4
2018-09-05T01:55:41.518Z,1011.4
2018-09-05T01:56:43.620Z,1011.4
2018-09-05T01:57:45.724Z,1011.4
2018-09-05T01:58:47.825Z,1011.4
2018-09-05T01:59:49.932Z,1011.4
2018-09-05T02:00:52.029Z,1011.4
2018-09-05T02:01:54.131Z,1011.4
2018-09-05T02:02:56.246Z,1011.4
2018-09-05T02:03:58.342Z,1011.4
2018-09-05T02:05:00.739Z,1011.4
2018-09-05T02:06:02.860Z,1011.4
2018-09-05T02:07:05.249Z,1011.4
2018-09-05T02:08:07.356Z,1011.4
2018-09-05T02:09:09.464Z,1011.4
2018-09-05T02:10:11.942Z,1011.4
2018-09-05T02:11:14.042Z,1011.4
2018-09-05T02:12:16.552Z,1011.4
2018-09-05T02:13:18.653Z,1011.3
2018-09-05T02:14:20.748Z,1011.4
2018-09-05T02:15:22.861Z,1011.4
2018-09-05T02:16:24.961Z,1011.4
2018-09-05T02:17:27.063Z,1011.4
2018-09-05T02:18:29.177Z,1011.4
2018-09-05T02:19:31.270Z,1011.4
2018-09-05T02:20:33.671Z,1011.4
2018-09-05T02:21:35.775Z,1011.4
2018-09-05T02:22:38.175Z,1011.4
2018-09-05T02:23:40.266Z,1011.5
2018-09-05T02:24:42.380Z,1011.5
2018-09-05T02:25:44.480Z,1011.5
2018-09-05T02:26:46.580Z,1011.5
2018-09-05T02:27:48.681Z,1011.5
2018-09-05T02:28:50.797Z,1011.5
2018-09-05T02:29:52.902Z,1011.5
2018-09-05T02:30:55.015Z,1011.5
2018-09-05T02:31:57.108Z,1011.5
2018-09-05T02:32:59.220Z,1011.5
2018-09-05T02:34:01.313Z,1011.5
2018-09-05T02:35:03.411Z,1011.5
2018-09-05T02:36:05.527Z,1011.4
2018-09-05T02:37:07.928Z,1011.5
2018-09-05T02:38:10.034Z,1011.5
2018-09-05T02:39:12.147Z,1011.4
2018-09-05T02:40:14.328Z,1011.4
2018-09-05T02:41:16.342Z,1011.4
2018-09-05T02:42:18.452Z,1011.3
2018-09-05T02:43:20.555Z,1011.3
2018-09-05T02:44:22.663Z,1011.3
2018-09-05T02:45:25.160Z,1011.3
2018-09-05T02:46:27.261Z,1011.4
2018-09-05T02:47:29.359Z,1011.4
2018-09-05T02:48:31.475Z,1011.3
2018-09-05T02:49:33.575Z,1011.4
2018-09-05T02:50:35.675Z,1011.4
2018-09-05T02:51:38.077Z,1011.4
2018-09-05T02:52:40.565Z,1011.4
2018-09-05T02:53:43.256Z,1011.4
2018-09-05T02:54:45.360Z,1011.5
2018-09-05T02:55:47.471Z,1011.4
2018-09-05T02:56:49.564Z,1011.4
2018-09-05T02:57:51.999Z,1011.4
2018-09-05T02:58:54.108Z,1011.4
2018-09-05T02:59:56.205Z,1011.5
2018-09-05T03:00:58.913Z,1011.4
2018-09-05T03:02:01.405Z,1011.5
2018-09-05T03:03:03.505Z,1011.4
2018-09-05T03:04:05.596Z,1011.5
2018-09-05T03:05:08.009Z,1011.4
2018-09-05T03:06:10.488Z,1011.5
2018-09-05T03:07:12.599Z,1011.4
2018-09-05T03:08:14.707Z,1011.5
2018-09-05T03:09:16.827Z,1011.4
2018-09-05T03:10:18.917Z,1011.4
2018-09-05T03:11:21.018Z,1011.4
2018-09-05T03:12:23.401Z,1011.5
2018-09-05T03:13:25.505Z,1011.5
2018-09-05T03:14:27.616Z,1011.4
2018-09-05T03:15:29.711Z,1011.5
2018-09-05T03:16:32.115Z,1011.5
2018-09-05T03:17:34.228Z,1011.5
2018-09-05T03:18:36.319Z,1011.5
2018-09-05T03:19:38.428Z,1011.4
2018-09-05T03:20:40.537Z,1011.4
2018-09-05T03:21:42.631Z,1011.4
2018-09-05T03:22:45.057Z,1011.5
2018-09-05T03:23:47.168Z,1011.5
2018-09-05T03:24:49.261Z,1011.5
2018-09-05T03:25:51.693Z,1011.5
2018-09-05T03:26:53.788Z,1011.5
2018-09-05T03:27:55.907Z,1011.5
2018-09-05T03:28:58.286Z,1011.5
2018-09-05T03:30:00.406Z,1011.5
2018-09-05T03:31:02.503Z,1011.5
2018-09-05T03:32:04.901Z,1011.5
2018-09-05T03:33:07.380Z,1011.4
2018-09-05T03:34:09.869Z,1011.5
2018-09-05T03:35:12.890Z,1011.5
2018-09-05T03:36:14.994Z,1011.5
2018-09-05T03:37:17.106Z,1011.5
2018-09-05T03:38:19.198Z,1011.5
2018-09-05T03:39:21.315Z,1011.5
2018-09-05T03:40:23.413Z,1011.5
2018-09-05T03:41:25.512Z,1011.5
2018-09-05T03:42:27.630Z,1011.5
2018-09-05T03:43:29.732Z,1011.5
2018-09-05T03:44:31.843Z,1011.5
2018-09-05T03:45:34.249Z,1011.5
2018-09-05T03:46:37.057Z,1011.5
2018-09-05T03:47:39.169Z,1011.5
2018-09-05T03:48:41.321Z,1011.5
2018-09-05T03:49:43.458Z,1011.5
2018-09-05T03:50:45.532Z,1011.5
2018-09-05T03:51:47.920Z,1011.6
2018-09-05T03:52:50.023Z,1011.5
2018-09-05T03:53:52.135Z,1011.5
2018-09-05T03:54:54.225Z,1011.6
2018-09-05T03:55:57.019Z,1011.5
2018-09-05T03:56:59.126Z,1011.6
2018-09-05T03:58:01.815Z,1011.6
2018-09-05T03:59:03.941Z,1011.6
2018-09-05T04:00:06.041Z,1011.5
2018-09-05T04:01:08.139Z,1011.6
2018-09-05T04:02:10.548Z,1011.6
2018-09-05T04:03:12.663Z,1011.6
2018-09-05T04:04:14.764Z,1011.6
2018-09-05T04:05:16.874Z,1011.6
2018-09-05T04:06:19.375Z,1011.6
2018-09-05T04:07:21.467Z,1011.7
2018-09-05T04:08:23.867Z,1011.7
2018-09-05T04:09:25.971Z,1011.7
2018-09-05T04:10:28.081Z,1011.7
2018-09-05T04:11:30.463Z,1011.7
2018-09-05T04:12:32.574Z,1011.7
2018-09-05T04:13:34.673Z,1011.7
2018-09-05T04:14:36.777Z,1011.7
2018-09-05T04:15:38.903Z,1011.7
2018-09-05T04:16:40.992Z,1011.7
2018-09-05T04:17:43.095Z,1011.7
2018-09-05T04:18:45.204Z,1011.7
2018-09-05T04:19:47.603Z,1011.7
2018-09-05T04:20:49.987Z,1011.7
2018-09-05T04:21:52.474Z,1011.7
2018-09-05T04:22:55.312Z,1011.7
2018-09-05T04:23:57.413Z,1011.6
2018-09-05T04:24:59.512Z,1011.7
2018-09-05T04:26:01.613Z,1011.7
2018-09-05T04:27:03.729Z,1011.7
2018-09-05T04:28:06.111Z,1011.7
2018-09-05T04:29:09.120Z,1011.7
2018-09-05T04:30:11.230Z,1011.7
2018-09-05T04:31:13.335Z,1011.7
2018-09-05T04:32:16.351Z,1011.7
2018-09-05T04:33:18.449Z,1011.7
2018-09-05T04:34:20.947Z,1011.7
2018-09-05T04:35:23.047Z,1011.7
2018-09-05T04:36:25.157Z,1011.7
2018-09-05T04:37:27.542Z,1011.8
2018-09-05T04:38:29.959Z,1011.8
2018-09-05T04:39:32.072Z,1011.8
2018-09-05T04:40:34.163Z,1011.8
2018-09-05T04:41:36.272Z,1011.8
2018-09-05T04:42:38.380Z,1011.8
2018-09-05T04:43:40.490Z,1011.8
2018-09-05T04:44:42.582Z,1011.8
2018-09-05T04:45:44.693Z,1011.8
2018-09-05T04:46:46.787Z,1011.8
2018-09-05T04:47:49.175Z,1011.8
2018-09-05T04:48:51.290Z,1011.8
2018-09-05T04:49:53.387Z,1011.8
2018-09-05T04:50:55.489Z,1011.8
2018-09-05T04:51:57.604Z,1011.8
2018-09-05T04:52:59.708Z,1011.8
2018-09-05T04:54:02.090Z,1011.8
2018-09-05T04:55:04.599Z,1011.8
2018-09-05T04:56:06.690Z,1011.8
2018-09-05T04:57:08.790Z,1011.9
2018-09-05T04:58:11.291Z,1011.9
2018-09-05T04:59:13.398Z,1011.8
2018-09-05T05:00:15.515Z,1011.8
2018-09-05T05:01:17.606Z,1011.9
2018-09-05T05:02:19.715Z,1011.9
2018-09-05T05:03:22.109Z,1012
2018-09-05T05:04:24.206Z,1011.9
2018-09-05T05:05:26.336Z,1012
2018-09-05T05:06:28.437Z,1012
2018-09-05T05:07:30.544Z,1011.9
2018-09-05T05:08:32.934Z,1012
2018-09-05T05:09:35.047Z,1012
2018-09-05T05:10:37.146Z,1012
2018-09-05T05:11:39.254Z,1011.9
2018-09-05T05:12:41.987Z,1012
2018-09-05T05:13:44.077Z,1011.9
2018-09-05T05:14:46.185Z,1012
2018-09-05T05:15:48.286Z,1012
2018-09-05T05:16:50.393Z,1012
2018-09-05T05:17:52.784Z,1012
2018-09-05T05:18:54.895Z,1012.1
2018-09-05T05:19:57.296Z,1012.1
2018-09-05T05:20:59.688Z,1012.1
2018-09-05T05:22:01.804Z,1012.1
2018-09-05T05:23:03.901Z,1012.1
2018-09-05T05:24:06.005Z,1012.1
2018-09-05T05:25:08.403Z,1012.1
2018-09-05T05:26:10.509Z,1012.1
2018-09-05T05:27:12.966Z,1012.1
2018-09-05T05:28:15.762Z,1012.2
2018-09-05T05:29:18.825Z,1012.1
2018-09-05T05:30:20.931Z,1012.2
2018-09-05T05:31:23.044Z,1012.1
2018-09-05T05:32:25.178Z,1012.2
2018-09-05T05:33:28.134Z,1012.2
2018-09-05T05:34:30.542Z,1012.2
2018-09-05T05:35:32.643Z,1012.2
2018-09-05T05:36:34.741Z,1012.2
2018-09-05T05:37:37.238Z,1012.2
2018-09-05T05:38:39.331Z,1012.2
2018-09-05T05:39:41.437Z,1012.2
2018-09-05T05:40:43.830Z,1012.2
2018-09-05T05:41:45.942Z,1012.2
2018-09-05T05:42:48.335Z,1012.2
2018-09-05T05:43:50.452Z,1012.2
2018-09-05T05:44:52.551Z,1012.2
2018-09-05T05:45:54.649Z,1012.2
2018-09-05T05:46:56.768Z,1012.3
2018-09-05T05:47:59.174Z,1012.2
2018-09-05T05:49:01.578Z,1012.2
2018-09-05T05:50:03.680Z,1012.2
2018-09-05T05:51:05.799Z,1012.2
2018-09-05T05:52:07.890Z,1012.2
2018-09-05T05:53:09.992Z,1012.2
2018-09-05T05:54:12.102Z,1012.2
2018-09-05T05:55:14.241Z,1012.3
2018-09-05T05:56:16.729Z,1012.3
2018-09-05T05:57:18.833Z,1012.3
2018-09-05T05:58:20.936Z,1012.2
2018-09-05T05:59:23.040Z,1012.2
2018-09-05T06:00:25.753Z,1012.2
2018-09-05T06:01:27.855Z,1012.2
2018-09-05T06:02:29.965Z,1012.3
2018-09-05T06:03:32.081Z,1012.3
2018-09-05T06:04:34.169Z,1012.3
2018-09-05T06:05:36.467Z,1012.3
2018-09-05T06:06:38.578Z,1012.3
2018-09-05T06:07:40.674Z,1012.4
2018-09-05T06:08:42.780Z,1012.3
2018-09-05T06:09:44.889Z,1012.3
2018-09-05T06:10:47.274Z,1012.3
2018-09-05T06:11:49.395Z,1012.3
2018-09-05T06:12:51.493Z,1012.3
2018-09-05T06:13:53.600Z,1012.3
2018-09-05T06:14:55.996Z,1012.4
2018-09-05T06:15:58.493Z,1012.4
2018-09-05T06:17:00.910Z,1012.4
2018-09-05T06:18:03.037Z,1012.4
2018-09-05T06:19:05.464Z,1012.4
2018-09-05T06:20:07.584Z,1012.4
2018-09-05T06:21:09.740Z,1012.3
2018-09-05T06:22:12.769Z,1012.4
2018-09-05T06:23:14.875Z,1012.4
2018-09-05T06:24:16.988Z,1012.4
2018-09-05T06:25:19.085Z,1012.4
2018-09-05T06:26:21.976Z,1012.4
2018-09-05T06:27:24.086Z,1012.4
2018-09-05T06:28:26.184Z,1012.4
2018-09-05T06:29:28.295Z,1012.4
2018-09-05T06:30:30.436Z,1012.4
2018-09-05T06:31:32.492Z,1012.4
2018-09-05T06:32:34.887Z,1012.4
2018-09-05T06:33:36.997Z,1012.4
2018-09-05T06:34:39.094Z,1012.4
2018-09-05T06:35:41.206Z,1012.4
2018-09-05T06:36:43.310Z,1012.4
2018-09-05T06:37:45.399Z,1012.5
2018-09-05T06:38:47.503Z,1012.4
2018-09-05T06:39:50.012Z,1012.4
2018-09-05T06:40:52.105Z,1012.4
2018-09-05T06:41:54.222Z,1012.4
2018-09-05T06:42:56.332Z,1012.4
2018-09-05T06:43:58.425Z,1012.4
2018-09-05T06:45:00.626Z,1012.4
2018-09-05T06:46:02.647Z,1012.4
2018-09-05T06:47:04.759Z,1012.4
2018-09-05T06:48:07.549Z,1012.4
2018-09-05T06:49:09.671Z,1012.4
2018-09-05T06:50:12.054Z,1012.4
2018-09-05T06:51:14.219Z,1012.3
2018-09-05T06:52:16.283Z,1012.4
2018-09-05T06:53:18.400Z,1012.4
2018-09-05T06:54:20.523Z,1012.4
2018-09-05T06:55:22.638Z,1012.4
2018-09-05T06:56:24.751Z,1012.4
2018-09-05T06:57:26.839Z,1012.4
2018-09-05T06:58:28.957Z,1012.4
2018-09-05T06:59:31.066Z,1012.4
2018-09-05T07:00:33.457Z,1012.4
2018-09-05T07:01:35.576Z,1012.4
2018-09-05T07:02:37.679Z,1012.5
2018-09-05T07:03:39.951Z,1012.4
2018-09-05T07:04:42.525Z,1012.5
2018-09-05T07:05:44.923Z,1012.5
2018-09-05T07:06:47.757Z,1012.5
2018-09-05T07:07:49.820Z,1012.5
2018-09-05T07:08:51.917Z,1012.4
2018-09-05T07:09:54.057Z,1012.4
2018-09-05T07:10:56.902Z,1012.5
2018-09-05T07:11:59.005Z,1012.5
2018-09-05T07:13:01.104Z,1012.5
2018-09-05T07:14:03.246Z,1012.5
2018-09-05T07:15:05.635Z,1012.5
2018-09-05T07:16:07.733Z,1012.5
2018-09-05T07:17:09.848Z,1012.5
2018-09-05T07:18:12.231Z,1012.5
2018-09-05T07:19:14.346Z,1012.5
2018-09-05T07:20:16.764Z,1012.6
2018-09-05T07:21:19.251Z,1012.5
2018-09-05T07:22:21.286Z,1012.5
2018-09-05T07:23:23.404Z,1012.6
2018-09-05T07:24:25.800Z,1012.5
2018-09-05T07:25:28.208Z,1012.6
2018-09-05T07:26:30.621Z,1012.6
2018-09-05T07:27:32.738Z,1012.6
2018-09-05T07:28:35.267Z,1012.6
2018-09-05T07:29:37.373Z,1012.6
2018-09-05T07:30:39.574Z,1012.6
2018-09-05T07:31:41.593Z,1012.6
2018-09-05T07:32:43.700Z,1012.6
2018-09-05T07:33:45.800Z,1012.6
2018-09-05T07:34:47.925Z,1012.5
2018-09-05T07:35:50.019Z,1012.6
2018-09-05T07:36:52.122Z,1012.6
2018-09-05T07:37:54.237Z,1012.6
2018-09-05T07:38:56.351Z,1012.6
2018-09-05T07:39:58.736Z,1012.7
2018-09-05T07:41:01.144Z,1012.6
2018-09-05T07:42:03.242Z,1012.6
2018-09-05T07:43:05.347Z,1012.6
2018-09-05T07:44:07.466Z,1012.6
2018-09-05T07:45:09.574Z,1012.7
2018-09-05T07:46:11.679Z,1012.7
2018-09-05T07:47:14.087Z,1012.7
2018-09-05T07:48:16.190Z,1012.6
2018-09-05T07:49:18.571Z,1012.7
2018-09-05T07:50:20.684Z,1012.7
2018-09-05T07:51:22.773Z,1012.7
2018-09-05T07:52:24.884Z,1012.7
2018-09-05T07:53:27.308Z,1012.7
2018-09-05T07:54:29.715Z,1012.6
2018-09-05T07:55:31.809Z,1012.7
2018-09-05T07:56:33.932Z,1012.7
2018-09-05T07:57:36.428Z,1012.7
2018-09-05T07:58:38.527Z,1012.7
2018-09-05T07:59:40.649Z,1012.7
2018-09-05T08:00:43.133Z,1012.7
2018-09-05T08:01:45.239Z,1012.7
2018-09-05T08:02:47.664Z,1012.7
2018-09-05T08:03:50.130Z,1012.7
2018-09-05T08:04:52.229Z,1012.7
2018-09-05T08:05:54.334Z,1012.7
2018-09-05T08:06:56.834Z,1012.7
2018-09-05T08:07:59.320Z,1012.7
2018-09-05T08:09:01.723Z,1012.7
2018-09-05T08:10:03.829Z,1012.7
2018-09-05T08:11:05.926Z,1012.7
2018-09-05T08:12:08.038Z,1012.7
2018-09-05T08:13:10.737Z,1012.7
2018-09-05T08:14:12.835Z,1012.7
2018-09-05T08:15:14.953Z,1012.7
2018-09-05T08:16:17.343Z,1012.7
2018-09-05T08:17:19.487Z,1012.8
2018-09-05T08:18:21.550Z,1012.8
2018-09-05T08:19:23.667Z,1012.8
2018-09-05T08:20:26.156Z,1012.8
2018-09-05T08:21:28.556Z,1012.8
2018-09-05T08:22:30.673Z,1012.8
2018-09-05T08:23:32.762Z,1012.8
2018-09-05T08:24:34.904Z,1012.8
2018-09-05T08:25:36.982Z,1012.8
2018-09-05T08:26:39.089Z,1012.8
2018-09-05T08:27:41.189Z,1012.8
2018-09-05T08:28:43.358Z,1012.8
2018-09-05T08:29:45.409Z,1012.8
2018-09-05T08:30:47.517Z,1012.8
2018-09-05T08:31:49.630Z,1012.8
2018-09-05T08:32:52.122Z,1012.8
2018-09-05T08:33:54.633Z,1012.8
2018-09-05T08:34:56.829Z,1012.8
2018-09-05T08:35:59.253Z,1012.8
2018-09-05T08:37:01.382Z,1012.8
2018-09-05T08:38:03.091Z,1012.8
2018-09-05T08:39:05.162Z,1012.8
2018-09-05T08:40:07.265Z,1012.8
2018-09-05T08:41:09.441Z,1012.8
2018-09-05T08:42:11.495Z,1012.8
2018-09-05T08:43:13.889Z,1012.8
2018-09-05T08:44:16.049Z,1012.8
2018-09-05T08:45:18.366Z,1012.8
2018-09-05T08:46:21.048Z,1012.7
2018-09-05T08:47:23.680Z,1012.7
2018-09-05T08:48:25.859Z,1012.8
2018-09-05T08:49:27.846Z,1012.8
2018-09-05T08:50:30.322Z,1012.7
2018-09-05T08:51:33.105Z,1012.8
2018-09-05T08:52:35.925Z,1012.7
2018-09-05T08:53:38.022Z,1012.8
2018-09-05T08:54:40.850Z,1012.8
2018-09-05T08:55:43.262Z,1012.8
2018-09-05T08:56:45.980Z,1012.8
2018-09-05T08:57:48.400Z,1012.8
2018-09-05T08:58:50.540Z,1012.8
2018-09-05T08:59:52.608Z,1012.8
2018-09-05T09:00:55.001Z,1012.8
2018-09-05T09:01:57.409Z,1012.8
2018-09-05T09:02:59.911Z,1012.8
2018-09-05T09:04:02.003Z,1012.8
2018-09-05T09:05:04.165Z,1012.8
2018-09-05T09:06:06.234Z,1012.8
2018-09-05T09:07:08.684Z,1012.8
2018-09-05T09:08:10.792Z,1012.8
2018-09-05T09:09:13.198Z,1012.8
2018-09-05T09:10:15.587Z,1012.8
2018-09-05T09:11:17.709Z,1012.7
2018-09-05T09:12:20.097Z,1012.7
2018-09-05T09:13:22.589Z,1012.7
2018-09-05T09:14:24.714Z,1012.7
2018-09-05T09:15:26.814Z,1012.7
2018-09-05T09:16:28.921Z,1012.7
2018-09-05T09:17:31.328Z,1012.7
2018-09-05T09:18:33.720Z,1012.7
2018-09-05T09:19:35.821Z,1012.7
2018-09-05T09:20:37.938Z,1012.7
2018-09-05T09:21:40.037Z,1012.7
2018-09-05T09:22:42.141Z,1012.8
2018-09-05T09:23:44.265Z,1012.7
2018-09-05T09:24:46.755Z,1012.7
2018-09-05T09:25:49.171Z,1012.7
2018-09-05T09:26:51.858Z,1012.8
2018-09-05T09:27:53.969Z,1012.7
2018-09-05T09:28:56.086Z,1012.7
2018-09-05T09:29:58.183Z,1012.7
2018-09-05T09:31:00.629Z,1012.7
2018-09-05T09:32:02.732Z,1012.7
2018-09-05T09:33:04.842Z,1012.7
2018-09-05T09:34:07.330Z,1012.7
2018-09-05T09:35:09.452Z,1012.7
2018-09-05T09:36:11.549Z,1012.7
2018-09-05T09:37:13.975Z,1012.6
2018-09-05T09:38:16.093Z,1012.6
2018-09-05T09:39:18.186Z,1012.6
2018-09-05T09:40:20.305Z,1012.6
2018-09-05T09:41:22.414Z,1012.7
2018-09-05T09:42:24.532Z,1012.6
2018-09-05T09:43:26.628Z,1012.5
2018-09-05T09:44:29.149Z,1012.5
2018-09-05T09:45:31.540Z,1012.6
2018-09-05T09:46:33.671Z,1012.5
2018-09-05T09:47:35.777Z,1012.6
2018-09-05T09:48:37.879Z,1012.6
2018-09-05T09:49:39.992Z,1012.6
2018-09-05T09:50:42.111Z,1012.6
2018-09-05T09:51:44.527Z,1012.5
2018-09-05T09:52:46.632Z,1012.6
2018-09-05T09:53:48.753Z,1012.5
2018-09-05T09:54:50.855Z,1012.5
2018-09-05T09:55:53.255Z,1012.5
2018-09-05T09:56:55.378Z,1012.5
2018-09-05T09:57:57.489Z,1012.5
2018-09-05T09:58:59.592Z,1012.5
2018-09-05T10:00:01.721Z,1012.6
2018-09-05T10:01:04.515Z,1012.5
2018-09-05T10:02:06.625Z,1012.5
2018-09-05T10:03:09.085Z,1012.5
2018-09-05T10:04:11.654Z,1012.4
2018-09-05T10:05:13.762Z,1012.4
2018-09-05T10:06:15.888Z,1012.4
2018-09-05T10:07:18.045Z,1012.4
2018-09-05T10:08:20.513Z,1012.4
2018-09-05T10:09:22.618Z,1012.4
2018-09-05T10:10:24.759Z,1012.4
2018-09-05T10:11:27.292Z,1012.4
2018-09-05T10:12:29.394Z,1012.3
2018-09-05T10:13:31.532Z,1012.3
2018-09-05T10:14:33.654Z,1012.3
2018-09-05T10:15:35.777Z,1012.3
2018-09-05T10:16:37.878Z,1012.3
2018-09-05T10:17:40.003Z,1012.3
2018-09-05T10:18:42.434Z,1012.3
2018-09-05T10:19:44.543Z,1012.3
2018-09-05T10:20:46.714Z,1012.3
2018-09-05T10:21:49.577Z,1012.3
2018-09-05T10:22:51.690Z,1012.3
2018-09-05T10:23:53.814Z,1012.3
2018-09-05T10:24:55.927Z,1012.3
2018-09-05T10:25:58.038Z,1012.3
2018-09-05T10:27:00.169Z,1012.3
2018-09-05T10:28:02.268Z,1012.3
2018-09-05T10:29:04.383Z,1012.3
2018-09-05T10:30:06.512Z,1012.4
2018-09-05T10:31:08.629Z,1012.4
2018-09-05T10:32:10.736Z,1012.4
2018-09-05T10:33:12.871Z,1012.4
2018-09-05T10:34:15.271Z,1012.4
2018-09-05T10:35:17.389Z,1012.4
2018-09-05T10:36:19.831Z,1012.3
2018-09-05T10:37:21.937Z,1012.3
2018-09-05T10:38:24.061Z,1012.3
2018-09-05T10:39:26.180Z,1012.3
2018-09-05T10:40:28.600Z,1012.4
2018-09-05T10:41:31.095Z,1012.4
2018-09-05T10:42:33.222Z,1012.3
2018-09-05T10:43:35.341Z,1012.3
2018-09-05T10:44:38.125Z,1012.3
2018-09-05T10:45:40.257Z,1012.3
2018-09-05T10:46:42.366Z,1012.3
2018-09-05T10:47:44.790Z,1012.3
2018-09-05T10:48:46.905Z,1012.2
2018-09-05T10:49:49.037Z,1012.2
2018-09-05T10:50:51.147Z,1012.3
2018-09-05T10:51:53.288Z,1012.3
2018-09-05T10:52:55.397Z,1012.3
2018-09-05T10:53:57.501Z,1012.3
2018-09-05T10:54:59.633Z,1012.2
2018-09-05T10:56:02.042Z,1012.3
2018-09-05T10:57:04.441Z,1012.3
2018-09-05T10:58:06.887Z,1012.2
2018-09-05T10:59:09.401Z,1012.2
2018-09-05T11:00:11.520Z,1012.2
2018-09-05T11:01:13.648Z,1012.1
2018-09-05T11:02:15.764Z,1012.1
2018-09-05T11:03:17.875Z,1012.1
2018-09-05T11:04:20.112Z,1012.1
2018-09-05T11:05:22.502Z,1012.1
2018-09-05T11:06:24.606Z,1012
2018-09-05T11:07:27.029Z,1012.1
2018-09-05T11:08:29.150Z,1012
2018-09-05T11:09:31.270Z,1012.1
2018-09-05T11:10:33.544Z,1012
2018-09-05T11:11:35.514Z,1012
2018-09-05T11:12:37.636Z,1012
2018-09-05T11:13:39.749Z,1012.1
2018-09-05T11:14:41.882Z,1012
2018-09-05T11:15:43.998Z,1012.1
2018-09-05T11:16:46.122Z,1012.1
2018-09-05T11:17:48.250Z,1012
2018-09-05T11:18:50.671Z,1012
2018-09-05T11:19:52.782Z,1012
2018-09-05T11:20:54.903Z,1012
2018-09-05T11:21:57.307Z,1012
2018-09-05T11:22:59.449Z,1012
2018-09-05T11:24:01.553Z,1011.9
2018-09-05T11:25:03.684Z,1012
2018-09-05T11:26:05.814Z,1012
2018-09-05T11:27:07.930Z,1012
2018-09-05T11:28:10.061Z,1011.9
2018-09-05T11:29:12.470Z,1011.9
2018-09-05T11:30:14.895Z,1011.9
2018-09-05T11:31:17.014Z,1011.9
2018-09-05T11:32:19.442Z,1011.9
2018-09-05T11:33:21.555Z,1011.9
2018-09-05T11:34:23.682Z,1011.9
2018-09-05T11:35:25.809Z,1011.9
2018-09-05T11:36:27.916Z,1011.9
2018-09-05T11:37:30.037Z,1011.9
2018-09-05T11:38:32.175Z,1011.8
2018-09-05T11:39:34.582Z,1011.9
2018-09-05T11:40:36.709Z,1011.9
2018-09-05T11:41:38.844Z,1011.8
2018-09-05T11:42:40.960Z,1011.9
2018-09-05T11:43:43.092Z,1011.8
2018-09-05T11:44:45.219Z,1011.8
2018-09-05T11:45:47.637Z,1011.8
2018-09-05T11:46:50.044Z,1011.8
2018-09-05T11:47:52.466Z,1011.8
2018-09-05T11:48:54.579Z,1011.8
2018-09-05T11:49:56.698Z,1011.8
2018-09-05T11:50:58.826Z,1011.7
2018-09-05T11:52:01.328Z,1011.7
2018-09-05T11:53:03.464Z,1011.7
2018-09-05T11:54:05.589Z,1011.7
2018-09-05T11:55:08.002Z,1011.7
2018-09-05T11:56:10.407Z,1011.7
2018-09-05T11:57:12.620Z,1011.7
2018-09-05T11:58:14.680Z,1011.7
2018-09-05T11:59:16.807Z,1011.7
2018-09-05T12:00:19.308Z,1011.7
2018-09-05T12:01:21.435Z,1011.6
2018-09-05T12:02:24.005Z,1011.6
2018-09-05T12:03:26.058Z,1011.6
2018-09-05T12:04:28.183Z,1011.6
2018-09-05T12:05:30.312Z,1011.6
2018-09-05T12:06:32.427Z,1011.6
2018-09-05T12:07:34.562Z,1011.6
2018-09-05T12:08:36.967Z,1011.6
2018-09-05T12:09:39.076Z,1011.5
2018-09-05T12:10:41.197Z,1011.5
2018-09-05T12:11:43.374Z,1011.5
2018-09-05T12:12:45.446Z,1011.6
2018-09-05T12:13:47.576Z,1011.5
2018-09-05T12:14:49.706Z,1011.5
2018-09-05T12:15:52.209Z,1011.5
2018-09-05T12:16:54.346Z,1011.5
2018-09-05T12:17:56.462Z,1011.5
2018-09-05T12:18:58.585Z,1011.5
2018-09-05T12:20:00.695Z,1011.5
2018-09-05T12:21:02.830Z,1011.5
2018-09-05T12:22:05.231Z,1011.5
2018-09-05T12:23:07.642Z,1011.5
2018-09-05T12:24:09.771Z,1011.5
2018-09-05T12:25:11.879Z,1011.5
2018-09-05T12:26:14.011Z,1011.5
2018-09-05T12:27:16.133Z,1011.5
2018-09-05T12:28:18.260Z,1011.4
2018-09-05T12:29:20.371Z,1011.4
2018-09-05T12:30:22.500Z,1011.4
2018-09-05T12:31:24.621Z,1011.4
2018-09-05T12:32:26.738Z,1011.4
2018-09-05T12:33:28.870Z,1011.4
2018-09-05T12:34:30.980Z,1011.4
2018-09-05T12:35:33.106Z,1011.4
2018-09-05T12:36:35.213Z,1011.4
2018-09-05T12:37:37.783Z,1011.4
2018-09-05T12:38:39.910Z,1011.4
2018-09-05T12:39:42.026Z,1011.4
2018-09-05T12:40:44.157Z,1011.3
2018-09-05T12:41:46.879Z,1011.4
2018-09-05T12:42:49.008Z,1011.3
2018-09-05T12:43:51.428Z,1011.3
2018-09-05T12:44:53.567Z,1011.4
2018-09-05T12:45:56.123Z,1011.4
2018-09-05T12:46:58.256Z,1011.3
2018-09-05T12:48:00.490Z,1011.3
2018-09-05T12:49:02.639Z,1011.3
2018-09-05T12:50:04.831Z,1011.3
2018-09-05T12:51:06.999Z,1011.2
2018-09-05T12:52:09.589Z,1011.2
2018-09-05T12:53:11.779Z,1011.3
2018-09-05T12:54:13.938Z,1011.2
2018-09-05T12:55:16.101Z,1011.2
2018-09-05T12:56:18.233Z,1011.2
2018-09-05T12:57:20.379Z,1011.3
2018-09-05T12:58:22.645Z,1011.2